Time;durP1;ratioP1;P1;durP2;ratioP2;P2;SDS_P1;SDS_P2;PMS_P1;PMS_P2;Temp;Humidity;BMP_temperature;BMP_pressure;BME280_temperature;BME280_humidity;BME280_pressure;Samples;Min_cycle;Max_cycle;Signal;HPM_P1;HPM_P2
2021/06/15 00:01:52;;;;;;;9.90;5.90;;;20.00;81.10;;;;;;5018638;28;20365;-37
2021/06/15 00:04:17;;;;;;;7.90;5.55;;;20.00;81.20;;;;;;5018464;28;20249;-39
2021/06/15 00:06:43;;;;;;;6.32;5.45;;;20.00;81.40;;;;;;5018223;28;20034;-37
2021/06/15 00:09:08;;;;;;;7.10;5.50;;;19.90;81.30;;;;;;5018436;28;20034;-37
2021/06/15 00:11:34;;;;;;;10.38;6.55;;;19.90;81.40;;;;;;5018239;28;20302;-37
2021/06/15 00:14:00;;;;;;;8.43;5.97;;;19.90;81.40;;;;;;5018220;28;20256;-37
2021/06/15 00:16:26;;;;;;;9.05;6.28;;;19.90;81.60;;;;;;5018327;28;20057;-39
2021/06/15 00:18:51;;;;;;;9.55;5.72;;;19.90;81.90;;;;;;5018107;28;20046;-39
2021/06/15 00:21:17;;;;;;;9.68;6.00;;;19.90;82.30;;;;;;5018477;28;20026;-40
2021/06/15 00:23:42;;;;;;;7.22;5.90;;;19.90;82.40;;;;;;5017708;28;20034;-37
2021/06/15 00:26:08;;;;;;;10.50;6.70;;;19.90;82.60;;;;;;5018399;28;20038;-37
2021/06/15 00:28:36;;;;;;;7.85;6.30;;;19.90;82.40;;;;;;5017798;28;20037;-39
2021/06/15 00:31:02;;;;;;;8.18;6.22;;;19.90;82.50;;;;;;5017732;28;20045;-40
2021/06/15 00:33:28;;;;;;;7.22;6.15;;;19.90;82.50;;;;;;5017472;28;20026;-37
2021/06/15 00:35:54;;;;;;;10.23;6.88;;;19.90;82.70;;;;;;5017698;28;20030;-40
2021/06/15 00:38:19;;;;;;;7.43;6.57;;;19.90;83.00;;;;;;5017461;28;20030;-38
2021/06/15 00:40:45;;;;;;;8.32;6.18;;;19.90;83.00;;;;;;5017890;28;20034;-37
2021/06/15 00:43:11;;;;;;;10.32;7.05;;;19.90;82.90;;;;;;5017305;28;20037;-37
2021/06/15 00:45:37;;;;;;;7.90;6.18;;;19.90;82.70;;;;;;5018086;28;20291;-39
2021/06/15 00:48:03;;;;;;;11.00;6.03;;;19.90;82.60;;;;;;5032725;28;20530;-40
2021/06/15 00:50:29;;;;;;;6.75;6.05;;;19.90;82.50;;;;;;5017618;28;20353;-37
2021/06/15 00:52:56;;;;;;;7.40;6.18;;;19.90;82.60;;;;;;5016110;28;20120;-37
2021/06/15 00:55:23;;;;;;;7.82;6.55;;;19.80;82.60;;;;;;5017357;28;20029;-39
2021/06/15 00:57:50;;;;;;;8.73;6.68;;;19.80;82.60;;;;;;5017362;28;20414;-39
2021/06/15 01:00:16;;;;;;;7.50;6.40;;;19.80;82.60;;;;;;5017442;28;20026;-39
2021/06/15 01:02:42;;;;;;;9.70;6.78;;;19.80;82.60;;;;;;5032305;28;20041;-37
2021/06/15 01:05:10;;;;;;;9.00;6.82;;;19.80;82.70;;;;;;5017551;28;20026;-40
2021/06/15 01:08:05;;;;;;;8.95;6.50;;;19.70;82.50;;;;;;5017224;28;20069;-40
2021/06/15 01:10:59;;;;;;;14.18;6.40;;;19.70;82.30;;;;;;5017187;28;20044;-40
2021/06/15 01:13:59;;;;;;;11.30;6.68;;;19.70;82.40;;;;;;5016928;28;20433;-37
2021/06/15 01:16:34;;;;;;;7.55;5.93;;;19.70;82.40;;;;;;5017331;28;20038;-37
2021/06/15 01:19:31;;;;;;;7.38;6.25;;;19.60;82.40;;;;;;5016802;28;20050;-39
2021/06/15 01:22:08;;;;;;;7.93;6.25;;;19.60;82.20;;;;;;5013556;28;20116;-37
2021/06/15 01:24:52;;;;;;;10.32;6.80;;;19.60;82.50;;;;;;5032346;28;20417;-37
2021/06/15 01:27:20;;;;;;;8.13;6.47;;;19.60;82.40;;;;;;5016984;28;20112;-37
2021/06/15 01:29:48;;;;;;;6.90;6.00;;;19.60;82.40;;;;;;5016885;28;20105;-39
2021/06/15 01:32:33;;;;;;;10.25;6.72;;;19.50;82.30;;;;;;5016695;28;20037;-39
2021/06/15 01:35:00;;;;;;;10.82;7.15;;;19.50;82.20;;;;;;5017172;28;20056;-39
2021/06/15 01:37:33;;;;;;;12.10;6.28;;;19.50;82.30;;;;;;5016824;28;20105;-37
2021/06/15 01:40:14;;;;;;;10.85;6.75;;;19.50;82.30;;;;;;5016704;28;20044;-39
2021/06/15 01:42:50;;;;;;;8.77;6.22;;;19.40;82.30;;;;;;5016302;28;20044;-37
2021/06/15 01:45:19;;;;;;;10.25;7.20;;;19.40;82.30;;;;;;5016851;28;20406;-40
2021/06/15 01:48:21;;;;;;;8.15;6.70;;;19.40;82.50;;;;;;5016497;28;20072;-39
2021/06/15 01:50:48;;;;;;;11.15;6.97;;;19.40;82.20;;;;;;4995247;28;20036;-37
2021/06/15 01:53:16;;;;;;;9.65;6.28;;;19.30;82.80;;;;;;5015951;28;20037;-38
2021/06/15 01:55:47;;;;;;;13.57;6.95;;;19.30;82.70;;;;;;5016675;28;20406;-36
2021/06/15 01:58:13;;;;;;;10.55;6.65;;;19.30;82.90;;;;;;5016099;28;20330;-37
2021/06/15 02:00:40;;;;;;;9.63;6.40;;;19.30;83.00;;;;;;5016557;28;20091;-37
2021/06/15 02:03:06;;;;;;;7.15;6.22;;;19.30;83.00;;;;;;5015892;28;20065;-37
2021/06/15 02:05:43;;;;;;;10.05;6.32;;;19.30;82.90;;;;;;5031461;28;20068;-36
2021/06/15 02:08:13;;;;;;;13.63;7.32;;;19.30;82.90;;;;;;5015649;28;20069;-39
2021/06/15 02:10:40;;;;;;;9.15;7.25;;;19.30;83.10;;;;;;5016750;28;20457;-37
2021/06/15 02:13:06;;;;;;;15.77;7.60;;;19.30;83.00;;;;;;5015962;28;20472;-39
2021/06/15 02:15:34;;;;;;;8.25;6.95;;;19.30;83.10;;;;;;5016287;28;20049;-39
2021/06/15 02:18:01;;;;;;;8.07;6.55;;;19.30;83.30;;;;;;5015947;28;20033;-40
2021/06/15 02:20:33;;;;;;;8.68;7.45;;;19.30;83.30;;;;;;5016404;28;20034;-37
2021/06/15 02:23:02;;;;;;;10.27;7.32;;;19.30;83.50;;;;;;5015657;28;20040;-39
2021/06/15 02:25:34;;;;;;;11.23;7.47;;;19.30;84.10;;;;;;5016557;28;20092;-39
2021/06/15 02:28:00;;;;;;;11.18;8.18;;;19.30;84.00;;;;;;5015517;28;20034;-41
2021/06/15 02:30:26;;;;;;;9.18;7.97;;;19.30;84.20;;;;;;5015931;28;20037;-39
2021/06/15 02:32:55;;;;;;;9.35;7.43;;;19.30;84.60;;;;;;5015475;28;20041;-39
2021/06/15 02:35:24;;;;;;;8.88;7.95;;;19.30;85.00;;;;;;5015913;28;20112;-39
2021/06/15 02:38:11;;;;;;;9.85;7.72;;;19.30;85.20;;;;;;5015792;28;20080;-39
2021/06/15 02:40:37;;;;;;;11.02;7.68;;;19.40;85.00;;;;;;5016262;28;20083;-39
2021/06/15 02:43:06;;;;;;;13.30;8.15;;;19.40;85.50;;;;;;5015357;28;20030;-37
2021/06/15 02:45:35;;;;;;;11.77;8.73;;;19.40;85.60;;;;;;5016154;28;20037;-39
2021/06/15 02:48:04;;;;;;;16.45;8.15;;;19.50;85.90;;;;;;5015404;28;20501;-37
2021/06/15 02:50:31;;;;;;;9.80;8.68;;;19.50;85.90;;;;;;5015725;28;20076;-38
2021/06/15 02:53:12;;;;;;;10.10;7.72;;;19.50;85.80;;;;;;5015419;28;20423;-39
2021/06/15 02:55:39;;;;;;;;;;;19.50;85.60;;;;;;5016392;28;20080;-39
2021/06/15 02:58:06;;;;;;;9.23;7.35;;;19.60;85.00;;;;;;5015591;28;19909;-37
2021/06/15 03:00:33;;;;;;;10.68;7.68;;;19.60;85.80;;;;;;5015686;28;20033;-36
2021/06/15 03:02:59;;;;;;;10.63;8.52;;;19.60;86.00;;;;;;5015454;28;20108;-37
2021/06/15 03:05:25;;;;;;;12.43;9.02;;;19.70;86.40;;;;;;5015516;28;20037;-37
2021/06/15 03:07:51;;;;;;;13.05;8.45;;;19.60;86.30;;;;;;5015333;28;20042;-39
2021/06/15 03:10:19;;;;;;;9.18;8.27;;;19.70;86.50;;;;;;5015564;28;20033;-38
2021/06/15 03:12:51;;;;;;;9.98;8.98;;;19.80;86.60;;;;;;5015348;28;20318;-37
2021/06/15 03:15:22;;;;;;;12.55;8.85;;;19.80;86.50;;;;;;5015512;28;20102;-39
2021/06/15 03:18:01;;;;;;;9.32;8.13;;;19.90;86.60;;;;;;5017744;28;20389;-40
2021/06/15 03:20:27;;;;;;;12.63;9.90;;;19.90;86.40;;;;;;5019444;28;20302;-39
2021/06/15 03:22:58;;;;;;;12.45;9.27;;;20.00;86.50;;;;;;5019136;28;20030;-39
2021/06/15 03:25:32;;;;;;;10.07;9.07;;;20.00;86.50;;;;;;5019137;28;20076;-40
2021/06/15 03:28:16;;;;;;;12.68;9.23;;;20.10;86.40;;;;;;5018855;28;20117;-37
2021/06/15 03:30:45;;;;;;;14.50;8.32;;;20.10;86.40;;;;;;5019230;28;20037;-39
2021/06/15 03:33:15;;;;;;;11.13;8.13;;;20.20;86.30;;;;;;5018883;28;20064;-37
2021/06/15 03:35:44;;;;;;;11.60;7.75;;;20.20;86.10;;;;;;5019298;28;20025;-37
2021/06/15 03:38:12;;;;;;;9.15;8.15;;;20.20;85.90;;;;;;5018787;28;20036;-37
2021/06/15 03:40:44;;;;;;;9.93;8.90;;;20.30;85.90;;;;;;5018774;28;20030;-37
2021/06/15 03:43:12;;;;;;;11.23;8.93;;;20.30;85.90;;;;;;5018547;28;20426;-37
2021/06/15 03:45:41;;;;;;;9.27;8.35;;;20.40;86.00;;;;;;5018834;28;20060;-40
2021/06/15 03:48:08;;;;;;;8.73;7.82;;;20.40;85.80;;;;;;5018557;28;20061;-37
2021/06/15 03:50:34;;;;;;;10.18;8.70;;;20.50;85.40;;;;;;5019020;28;20317;-37
2021/06/15 03:53:03;;;;;;;11.20;7.80;;;20.50;85.30;;;;;;5033561;28;20087;-39
2021/06/15 03:55:30;;;;;;;11.43;9.18;;;20.50;85.10;;;;;;5018919;28;20426;-37
2021/06/15 03:58:00;;;;;;;10.73;8.05;;;20.60;84.90;;;;;;5018310;28;20030;-40
2021/06/15 04:00:28;;;;;;;8.77;7.88;;;20.70;84.60;;;;;;5018810;28;20057;-37
2021/06/15 04:02:57;;;;;;;11.85;8.75;;;20.70;84.50;;;;;;5033415;28;20030;-39
2021/06/15 04:05:28;;;;;;;9.32;8.27;;;20.80;84.20;;;;;;5018948;28;20169;-37
2021/06/15 04:08:01;;;;;;;9.65;8.25;;;20.80;83.80;;;;;;5018321;28;20095;-38
2021/06/15 04:10:28;;;;;;;12.10;7.93;;;20.90;83.80;;;;;;5018198;28;20084;-37
2021/06/15 04:12:55;;;;;;;10.80;8.70;;;20.90;83.50;;;;;;5018001;28;20417;-37
2021/06/15 04:15:24;;;;;;;12.55;8.55;;;20.90;83.40;;;;;;5018254;28;20066;-37
2021/06/15 04:17:51;;;;;;;11.87;8.37;;;21.00;82.90;;;;;;5017943;28;20318;-40
2021/06/15 04:20:39;;;;;;;9.77;8.20;;;21.00;82.90;;;;;;5018323;28;20025;-37
2021/06/15 04:23:07;;;;;;;9.43;8.30;;;21.10;82.70;;;;;;5017744;28;20322;-37
2021/06/15 04:25:37;;;;;;;9.75;8.55;;;21.10;82.60;;;;;;5018009;28;20034;-37
2021/06/15 04:28:04;;;;;;;12.30;8.65;;;21.20;82.00;;;;;;5017681;28;20037;-37
2021/06/15 04:30:34;;;;;;;10.55;8.50;;;21.20;81.80;;;;;;5017718;28;20118;-37
2021/06/15 04:33:03;;;;;;;12.90;9.00;;;21.20;81.60;;;;;;5017384;28;20041;-37
2021/06/15 04:35:33;;;;;;;14.85;8.43;;;21.30;80.90;;;;;;5017971;28;20283;-37
2021/06/15 04:38:06;;;;;;;;;;;21.30;81.00;;;;;;5018007;28;20034;-37
2021/06/15 04:40:35;;;;;;;13.60;9.27;;;21.30;81.30;;;;;;5017785;28;19959;-39
2021/06/15 04:43:19;;;;;;;11.77;9.77;;;21.30;81.40;;;;;;5017074;28;20044;-37
2021/06/15 04:45:46;;;;;;;9.85;8.15;;;21.40;80.40;;;;;;5027809;28;20116;-37
2021/06/15 04:48:22;;;;;;;11.07;9.23;;;21.40;80.30;;;;;;5036420;28;20044;-40
2021/06/15 04:50:49;;;;;;;19.80;16.17;;;21.50;80.30;;;;;;5037476;28;20072;-37
2021/06/15 04:53:17;;;;;;;11.63;9.80;;;21.50;80.00;;;;;;5036315;28;20025;-37
2021/06/15 04:55:45;;;;;;;14.27;12.02;;;21.60;79.30;;;;;;5036675;28;20377;-37
2021/06/15 04:58:14;;;;;;;11.27;9.95;;;21.70;79.10;;;;;;5036658;28;20416;-37
2021/06/15 05:00:39;;;;;;;10.10;8.60;;;21.70;78.30;;;;;;5036610;28;20427;-37
2021/06/15 05:03:06;;;;;;;9.93;8.68;;;21.80;78.10;;;;;;5035574;28;20033;-37
2021/06/15 05:05:33;;;;;;;12.00;10.52;;;21.80;77.90;;;;;;5037067;28;20038;-37
2021/06/15 05:08:01;;;;;;;10.73;9.63;;;21.90;77.30;;;;;;5036597;28;20057;-36
2021/06/15 05:10:29;;;;;;;12.88;10.15;;;21.90;77.30;;;;;;5035411;28;20041;-37
2021/06/15 05:12:55;;;;;;;9.70;8.52;;;21.90;77.20;;;;;;5036093;28;20029;-37
2021/06/15 05:15:27;;;;;;;11.70;8.32;;;22.00;77.50;;;;;;5036097;28;20367;-39
2021/06/15 05:17:55;;;;;;;11.07;9.27;;;22.00;77.60;;;;;;5035802;28;20118;-40
2021/06/15 05:20:22;;;;;;;14.20;9.65;;;22.00;77.90;;;;;;5036681;28;20360;-37
2021/06/15 05:23:08;;;;;;;15.35;8.88;;;22.10;77.70;;;;;;5035676;28;20063;-41
2021/06/15 05:25:34;;;;;;;13.73;9.85;;;22.10;77.50;;;;;;5036548;28;20091;-41
2021/06/15 05:28:00;;;;;;;12.40;10.95;;;22.10;77.60;;;;;;5035648;28;20034;-37
2021/06/15 05:30:28;;;;;;;13.18;10.02;;;22.10;77.40;;;;;;5036244;28;20035;-37
2021/06/15 05:32:53;;;;;;;12.40;10.40;;;22.20;77.60;;;;;;5035621;28;20044;-37
2021/06/15 05:35:19;;;;;;;9.90;8.55;;;22.20;77.00;;;;;;5036349;28;20026;-37
2021/06/15 05:37:47;;;;;;;11.35;9.23;;;22.20;77.10;;;;;;5036014;28;20317;-37
2021/06/15 05:40:14;;;;;;;12.05;8.82;;;22.30;77.10;;;;;;5050931;28;20044;-40
2021/06/15 05:42:40;;;;;;;11.98;9.20;;;22.30;77.00;;;;;;5034930;28;20033;-37
2021/06/15 05:45:07;;;;;;;12.05;10.75;;;22.30;77.00;;;;;;5035562;28;20033;-37
2021/06/15 05:47:34;;;;;;;12.27;9.65;;;22.40;76.80;;;;;;5036024;28;20310;-40
2021/06/15 05:50:00;;;;;;;11.93;8.20;;;22.40;76.70;;;;;;5035675;28;20078;-37
2021/06/15 05:52:26;;;;;;;10.98;9.25;;;22.40;76.70;;;;;;5034206;28;20026;-37
2021/06/15 05:54:52;;;;;;;10.38;9.27;;;22.40;76.80;;;;;;5034651;28;20053;-37
2021/06/15 05:57:18;;;;;;;11.00;9.68;;;22.50;76.60;;;;;;5035884;28;20025;-37
2021/06/15 05:59:44;;;;;;;11.25;8.73;;;22.50;76.60;;;;;;5035601;28;20030;-37
2021/06/15 06:02:09;;;;;;;11.05;8.57;;;22.60;76.70;;;;;;5035481;28;20063;-39
2021/06/15 06:10:06;;;;;;;12.82;8.45;;;22.70;77.00;;;;;;5035610;28;20095;-38
2021/06/15 06:12:32;;;;;;;9.35;8.32;;;22.80;76.70;;;;;;5034231;28;20037;-39
2021/06/15 06:14:58;;;;;;;10.32;9.32;;;22.80;76.60;;;;;;5022010;28;20087;-35
2021/06/15 06:17:24;;;;;;;13.75;11.00;;;22.90;76.20;;;;;;5034952;28;20033;-36
2021/06/15 06:19:49;;;;;;;13.73;9.77;;;22.90;75.50;;;;;;5035052;28;20046;-35
2021/06/15 06:22:15;;;;;;;11.35;9.50;;;23.00;75.40;;;;;;5035363;28;20030;-38
2021/06/15 06:24:41;;;;;;;9.30;8.30;;;23.10;75.50;;;;;;5035116;28;20349;-38
2021/06/15 06:27:07;;;;;;;16.02;11.13;;;23.10;76.00;;;;;;5035017;28;20036;-35
2021/06/15 06:29:33;;;;;;;15.55;11.65;;;23.20;75.70;;;;;;5034599;28;20037;-35
2021/06/15 06:31:59;;;;;;;11.73;9.75;;;23.20;75.60;;;;;;5034958;28;20465;-35
2021/06/15 06:34:24;;;;;;;10.35;9.18;;;23.30;75.80;;;;;;5034878;28;20099;-39
2021/06/15 06:36:51;;;;;;;11.32;9.25;;;23.40;75.70;;;;;;5035015;28;20112;-36
2021/06/15 06:39:17;;;;;;;11.90;9.07;;;23.40;75.50;;;;;;5034378;28;20029;-39
2021/06/15 06:41:42;;;;;;;11.25;10.07;;;23.50;75.70;;;;;;5035344;28;20026;-38
2021/06/15 06:44:08;;;;;;;11.02;9.93;;;23.50;75.00;;;;;;5034910;28;20437;-39
2021/06/15 06:46:34;;;;;;;12.82;9.63;;;23.60;74.80;;;;;;5034742;28;20034;-36
2021/06/15 06:49:00;;;;;;;9.02;8.13;;;23.70;74.60;;;;;;5034623;28;20037;-36
2021/06/15 06:51:25;;;;;;;9.40;8.35;;;23.70;74.50;;;;;;5036920;28;20036;-35
2021/06/15 06:53:52;;;;;;;11.02;8.52;;;23.80;74.60;;;;;;5038625;28;20033;-39
2021/06/15 06:56:18;;;;;;;10.93;7.53;;;23.90;74.70;;;;;;5039120;28;20021;-39
2021/06/15 06:58:46;;;;;;;9.38;8.38;;;23.90;74.70;;;;;;5038958;28;20028;-37
2021/06/15 07:01:12;;;;;;;10.15;8.52;;;24.00;75.10;;;;;;5038539;28;20045;-36
2021/06/15 07:03:37;;;;;;;9.32;7.70;;;24.10;74.70;;;;;;5037870;28;20306;-35
2021/06/15 07:06:03;;;;;;;10.82;8.60;;;24.10;74.80;;;;;;5039156;28;20057;-38
2021/06/15 07:08:30;;;;;;;9.60;8.60;;;24.20;74.60;;;;;;5038240;28;20021;-36
2021/06/15 07:10:55;;;;;;;9.95;8.95;;;24.30;74.10;;;;;;5038053;28;20109;-36
2021/06/15 07:13:21;;;;;;;10.10;8.43;;;24.40;73.20;;;;;;5037702;28;20121;-35
2021/06/15 07:15:47;;;;;;;8.85;7.90;;;24.40;72.60;;;;;;5038796;28;20057;-36
2021/06/15 07:18:13;;;;;;;11.82;7.47;;;24.40;72.80;;;;;;5037496;28;20048;-36
2021/06/15 07:20:38;;;;;;;8.90;7.65;;;24.40;72.80;;;;;;5038736;28;20056;-39
2021/06/15 07:23:05;;;;;;;11.20;7.68;;;24.50;73.00;;;;;;5038131;28;20383;-38
2021/06/15 07:25:31;;;;;;;13.38;9.07;;;24.60;72.30;;;;;;5038501;28;20041;-36
2021/06/15 07:27:58;;;;;;;8.73;7.68;;;24.60;71.40;;;;;;5037425;28;20034;-36
2021/06/15 07:30:24;;;;;;;9.23;7.97;;;24.70;71.20;;;;;;5037947;28;20178;-37
2021/06/15 07:32:51;;;;;;;11.23;7.20;;;24.70;70.90;;;;;;5037976;28;20067;-36
2021/06/15 07:35:17;;;;;;;9.25;7.60;;;24.80;70.80;;;;;;5038223;28;20026;-39
2021/06/15 07:37:42;;;;;;;8.35;7.55;;;24.80;70.20;;;;;;5037845;28;20030;-39
2021/06/15 07:40:09;;;;;;;10.68;6.70;;;24.80;69.80;;;;;;5038286;28;20029;-36
2021/06/15 07:42:35;;;;;;;11.93;7.20;;;24.90;70.30;;;;;;5037301;28;20029;-40
2021/06/15 07:45:00;;;;;;;9.57;7.05;;;25.00;70.50;;;;;;5034946;28;20039;-39
2021/06/15 07:47:26;;;;;;;6.75;6.05;;;25.00;69.90;;;;;;5038045;28;20116;-36
2021/06/15 07:49:52;;;;;;;6.25;5.60;;;25.00;69.90;;;;;;5037910;28;20436;-35
2021/06/15 07:52:18;;;;;;;8.23;5.63;;;25.10;69.60;;;;;;5038041;28;20029;-35
2021/06/15 07:54:45;;;;;;;6.90;6.20;;;25.20;69.70;;;;;;5037288;28;20025;-36
2021/06/15 07:57:11;;;;;;;9.02;5.45;;;25.30;68.40;;;;;;5036880;28;20025;-36
2021/06/15 07:59:37;;;;;;;7.55;5.18;;;25.30;68.20;;;;;;5037874;28;20346;-36
2021/06/15 08:02:03;;;;;;;8.13;5.25;;;25.40;68.10;;;;;;5037004;28;20071;-36
2021/06/15 08:04:29;;;;;;;18.33;16.05;;;25.50;68.40;;;;;;5036589;28;20062;-39
2021/06/15 08:06:55;;;;;;;9.65;7.60;;;25.60;67.60;;;;;;5038145;28;20057;-36
2021/06/15 08:09:21;;;;;;;10.40;7.82;;;25.70;67.30;;;;;;5037527;28;20040;-37
2021/06/15 08:11:46;;;;;;;21.25;18.42;;;25.70;66.90;;;;;;5037659;28;20040;-39
2021/06/15 08:14:12;;;;;;;25.88;23.05;;;25.80;66.20;;;;;;5037799;28;20113;-36
2021/06/15 08:16:38;;;;;;;15.57;7.47;;;25.90;65.20;;;;;;5037725;28;20360;-36
2021/06/15 08:19:04;;;;;;;15.18;12.35;;;26.00;64.60;;;;;;5037185;28;20068;-36
2021/06/15 08:21:30;;;;;;;13.63;6.43;;;26.10;64.60;;;;;;5037588;28;20025;-36
2021/06/15 08:23:56;;;;;;;5.65;4.75;;;26.20;63.70;;;;;;5036956;28;20036;-37
2021/06/15 08:26:22;;;;;;;5.03;4.53;;;26.30;63.80;;;;;;5037204;28;20322;-35
2021/06/15 08:28:47;;;;;;;6.32;5.15;;;26.40;63.50;;;;;;5035495;28;20038;-38
2021/06/15 08:31:13;;;;;;;9.15;6.78;;;26.50;62.90;;;;;;5035313;28;20048;-39
2021/06/15 08:33:39;;;;;;;8.10;7.30;;;26.60;62.90;;;;;;5030376;28;20032;-38
2021/06/15 08:36:04;;;;;;;9.98;7.25;;;26.70;62.20;;;;;;5036926;28;20078;-36
2021/06/15 08:38:30;;;;;;;7.93;6.38;;;26.80;62.20;;;;;;5036691;28;20078;-39
2021/06/15 08:40:56;;;;;;;16.70;14.88;;;26.90;62.40;;;;;;5036812;28;20283;-39
2021/06/15 08:43:22;;;;;;;17.50;15.60;;;26.90;62.10;;;;;;5036933;28;20033;-39
2021/06/15 08:45:48;;;;;;;11.05;9.95;;;27.00;62.00;;;;;;5036969;28;20045;-38
2021/06/15 08:48:14;;;;;;;18.98;10.77;;;27.00;61.80;;;;;;5035517;28;20067;-35
2021/06/15 08:50:43;;;;;;;12.10;5.90;;;27.10;61.30;;;;;;5036855;28;20101;-36
2021/06/15 08:53:09;;;;;;;12.35;9.25;;;27.20;61.10;;;;;;5036183;28;20037;-36
2021/06/15 08:55:35;;;;;;;8.60;7.38;;;27.30;61.00;;;;;;5037300;28;20361;-36
2021/06/15 08:58:10;;;;;;;10.07;8.10;;;27.30;60.70;;;;;;5036776;28;20103;-39
2021/06/15 09:00:36;;;;;;;8.10;6.90;;;27.30;60.70;;;;;;5036252;28;20030;-35
2021/06/15 09:03:02;;;;;;;5.85;5.07;;;27.40;60.10;;;;;;5036332;28;20044;-37
2021/06/15 09:05:27;;;;;;;5.22;4.72;;;27.50;59.80;;;;;;5036794;28;20052;-36
2021/06/15 09:08:04;;;;;;;6.00;4.70;;;27.50;58.60;;;;;;5036585;28;20393;-36
2021/06/15 09:10:41;;;;;;;11.25;9.20;;;27.50;58.40;;;;;;5036652;28;20104;-35
2021/06/15 09:13:38;;;;;;;11.43;9.40;;;27.50;59.30;;;;;;5036237;28;20041;-38
2021/06/15 09:16:20;;;;;;;9.15;7.47;;;27.50;58.60;;;;;;5028715;28;20029;-39
2021/06/15 09:18:47;;;;;;;8.75;6.32;;;27.60;58.80;;;;;;5036356;28;20069;-39
2021/06/15 09:21:36;;;;;;;9.90;6.13;;;27.60;58.10;;;;;;5036679;28;20036;-35
2021/06/15 09:24:06;;;;;;;8.00;7.20;;;27.60;58.20;;;;;;5036205;28;20065;-35
2021/06/15 09:27:10;;;;;;;6.03;5.05;;;27.70;57.70;;;;;;5036486;28;20049;-39
2021/06/15 09:29:53;;;;;;;9.43;4.78;;;27.80;57.70;;;;;;4955841;29;20019;-39
2021/06/15 09:32:19;;;;;;;7.38;5.95;;;27.80;57.90;;;;;;4955812;29;20039;-35
2021/06/15 09:34:51;;;;;;;7.13;6.10;;;27.80;57.60;;;;;;5002988;28;20320;-36
2021/06/15 09:37:45;;;;;;;7.68;6.15;;;27.80;57.30;;;;;;5035656;28;20029;-39
2021/06/15 09:40:17;;;;;;;6.13;4.82;;;27.90;57.00;;;;;;5028952;28;20051;-36
2021/06/15 09:43:02;;;;;;;8.93;7.60;;;27.90;57.00;;;;;;5035843;28;20022;-38
2021/06/15 09:45:37;;;;;;;7.15;5.88;;;28.00;57.90;;;;;;5019758;28;20057;-37
2021/06/15 09:48:22;;;;;;;10.32;5.65;;;28.00;56.90;;;;;;5015418;28;20096;-41
2021/06/15 09:50:48;;;;;;;5.45;4.95;;;28.10;56.80;;;;;;5015459;28;20377;-35
2021/06/15 09:53:38;;;;;;;6.18;5.07;;;28.00;56.80;;;;;;5030586;28;20418;-36
2021/06/15 09:56:06;;;;;;;11.63;5.20;;;28.00;56.90;;;;;;5015592;28;20330;-40
2021/06/15 09:58:49;;;;;;;7.90;5.72;;;28.10;57.00;;;;;;5015484;28;20026;-39
2021/06/15 10:01:25;;;;;;;7.50;4.18;;;28.10;56.60;;;;;;5015773;28;20104;-39
2021/06/15 10:04:20;;;;;;;5.60;4.15;;;28.10;56.10;;;;;;5015470;28;20441;-36
2021/06/15 10:06:47;;;;;;;7.50;4.15;;;28.20;56.00;;;;;;5015083;28;20088;-36
2021/06/15 10:09:21;;;;;;;12.07;5.07;;;28.30;55.90;;;;;;5033084;28;20029;-36
2021/06/15 10:11:46;;;;;;;7.35;5.47;;;28.30;55.30;;;;;;5034036;28;20045;-36
2021/06/15 10:14:13;;;;;;;7.57;6.25;;;28.40;55.90;;;;;;5035351;28;20025;-36
2021/06/15 10:16:38;;;;;;;4.72;4.32;;;28.50;55.10;;;;;;5035212;28;20401;-36
2021/06/15 10:19:04;;;;;;;4.10;3.67;;;28.50;54.80;;;;;;5034775;28;20096;-35
2021/06/15 10:21:31;;;;;;;13.05;7.47;;;28.60;55.00;;;;;;5035214;28;20084;-35
2021/06/15 10:23:56;;;;;;;6.32;4.50;;;28.60;55.20;;;;;;5035794;28;20029;-36
2021/06/15 10:26:22;;;;;;;4.80;4.05;;;28.70;55.40;;;;;;5034658;28;20400;-36
2021/06/15 10:28:48;;;;;;;5.53;4.05;;;28.80;54.80;;;;;;5035254;28;20029;-37
2021/06/15 10:31:14;;;;;;;4.43;4.03;;;28.90;54.30;;;;;;5035083;28;20455;-39
2021/06/15 10:33:43;;;;;;;4.80;3.78;;;29.00;54.00;;;;;;5035103;28;20302;-39
2021/06/15 10:36:09;;;;;;;7.30;5.13;;;29.10;53.60;;;;;;5034973;28;20045;-41
2021/06/15 10:38:40;;;;;;;7.63;4.38;;;29.20;54.10;;;;;;5034783;28;20026;-39
2021/06/15 10:41:07;;;;;;;7.65;3.65;;;29.30;54.20;;;;;;5035100;28;20494;-35
2021/06/15 10:43:42;;;;;;;7.97;4.50;;;29.40;53.70;;;;;;5034557;28;20025;-35
2021/06/15 10:46:11;;;;;;;5.55;4.90;;;29.40;54.20;;;;;;5035007;28;20360;-36
2021/06/15 10:48:54;;;;;;;5.35;4.43;;;29.60;53.30;;;;;;5034785;28;20032;-41
2021/06/15 10:51:28;;;;;;;8.07;4.75;;;29.60;53.20;;;;;;5034681;28;20089;-38
2021/06/15 10:54:02;;;;;;;5.80;4.88;;;29.60;52.70;;;;;;5034580;28;20030;-39
2021/06/15 10:56:31;;;;;;;4.80;3.97;;;29.60;53.30;;;;;;5034415;28;20029;-36
2021/06/15 10:59:07;;;;;;;5.32;3.67;;;29.60;52.50;;;;;;5035248;28;20044;-39
2021/06/15 11:01:35;;;;;;;6.40;4.30;;;29.70;52.20;;;;;;5034930;28;20041;-38
2021/06/15 11:04:13;;;;;;;7.00;4.75;;;29.80;52.60;;;;;;5034753;28;20280;-35
2021/06/15 11:06:44;;;;;;;9.88;4.97;;;29.90;52.60;;;;;;5035061;28;20045;-36
2021/06/15 11:09:15;;;;;;;5.55;4.50;;;29.90;51.80;;;;;;5034060;28;20037;-40
2021/06/15 11:11:42;;;;;;;4.95;4.22;;;30.00;51.60;;;;;;5034960;28;20045;-37
2021/06/15 11:14:12;;;;;;;5.03;4.40;;;30.20;51.80;;;;;;5034538;28;20088;-38
2021/06/15 11:17:06;;;;;;;7.93;4.57;;;30.20;51.00;;;;;;5034899;28;20021;-36
2021/06/15 11:19:38;;;;;;;5.07;3.78;;;30.40;51.20;;;;;;5032069;28;20080;-39
2021/06/15 11:22:07;;;;;;;5.28;4.30;;;30.40;51.00;;;;;;5034278;28;20495;-36
2021/06/15 11:24:39;;;;;;;9.05;3.72;;;30.50;50.90;;;;;;5034250;28;20049;-39
2021/06/15 11:27:27;;;;;;;5.35;3.97;;;30.60;51.20;;;;;;5034839;28;20417;-36
2021/06/15 11:29:55;;;;;;;3.83;3.45;;;30.70;50.30;;;;;;5034674;28;20380;-39
2021/06/15 11:32:34;;;;;;;6.85;4.50;;;30.80;49.90;;;;;;5034115;28;20065;-36
2021/06/15 11:35:01;;;;;;;4.65;4.13;;;30.80;49.50;;;;;;5034754;28;20025;-40
2021/06/15 11:37:28;;;;;;;3.80;3.40;;;30.90;49.70;;;;;;5035265;28;20067;-38
2021/06/15 11:39:54;;;;;;;6.13;4.50;;;31.00;49.70;;;;;;5038379;28;20029;-36
2021/06/15 11:42:30;;;;;;;4.90;3.35;;;31.10;49.10;;;;;;5038267;28;20037;-39
2021/06/15 11:45:05;;;;;;;6.53;4.07;;;31.20;48.50;;;;;;5037929;28;20100;-39
2021/06/15 11:47:38;;;;;;;3.65;3.20;;;31.40;48.60;;;;;;5037578;28;20038;-39
2021/06/15 11:50:15;;;;;;;6.30;4.28;;;31.50;48.50;;;;;;5038048;28;20037;-36
2021/06/15 11:52:58;;;;;;;4.88;3.47;;;31.60;48.50;;;;;;5037595;28;20040;-38
2021/06/15 11:55:41;;;;;;;4.22;3.60;;;31.70;48.20;;;;;;5038272;28;20025;-39
2021/06/15 11:58:34;;;;;;;4.82;3.13;;;31.80;47.30;;;;;;5037571;28;20340;-36
2021/06/15 12:01:10;;;;;;;4.78;4.18;;;31.90;47.20;;;;;;5034911;28;20038;-36
2021/06/15 12:03:41;;;;;;;5.55;3.58;;;32.10;46.50;;;;;;5037080;28;20033;-37
2021/06/15 12:06:08;;;;;;;6.65;3.00;;;32.20;46.10;;;;;;5037741;28;20037;-36
2021/06/15 12:08:36;;;;;;;3.42;3.13;;;32.30;45.90;;;;;;5037435;28;20037;-39
2021/06/15 12:11:03;;;;;;;5.93;3.28;;;32.40;46.10;;;;;;5038037;28;20163;-36
2021/06/15 12:13:33;;;;;;;5.85;3.92;;;32.50;46.50;;;;;;5037737;28;20329;-39
2021/06/15 12:16:00;;;;;;;4.07;3.22;;;32.70;46.30;;;;;;5037937;28;20026;-39
2021/06/15 12:18:27;;;;;;;3.25;2.90;;;32.80;45.60;;;;;;5037044;28;20124;-36
2021/06/15 12:21:05;;;;;;;4.07;3.25;;;32.90;45.70;;;;;;5037760;28;20425;-38
2021/06/15 12:23:53;;;;;;;3.72;3.35;;;33.00;45.30;;;;;;5037623;28;20039;-39
2021/06/15 12:26:29;;;;;;;5.47;3.63;;;33.20;45.50;;;;;;5038153;28;20343;-36
2021/06/15 12:28:57;;;;;;;4.55;3.20;;;33.30;45.00;;;;;;5036771;28;20033;-39
2021/06/15 12:31:44;;;;;;;3.35;3.03;;;33.40;44.80;;;;;;5037501;28;20345;-36
2021/06/15 12:34:12;;;;;;;3.70;3.20;;;33.60;44.10;;;;;;5036638;28;20025;-36
2021/06/15 12:36:40;;;;;;;3.72;3.33;;;33.80;44.00;;;;;;5037505;28;20026;-36
2021/06/15 12:39:30;;;;;;;4.75;3.35;;;33.90;44.10;;;;;;5037410;28;20101;-40
2021/06/15 12:42:04;;;;;;;4.47;3.03;;;34.00;44.10;;;;;;5036882;28;20328;-38
2021/06/15 12:44:42;;;;;;;3.47;3.15;;;34.20;43.60;;;;;;5026984;28;20083;-37
2021/06/15 12:47:13;;;;;;;3.83;2.95;;;34.40;42.90;;;;;;5016751;28;20322;-36
2021/06/15 12:49:48;;;;;;;4.53;2.47;;;34.50;42.50;;;;;;5016348;28;20418;-36
2021/06/15 12:52:14;;;;;;;5.50;3.33;;;34.70;41.70;;;;;;5016923;28;20057;-40
2021/06/15 12:54:42;;;;;;;8.35;3.55;;;34.90;41.60;;;;;;5016887;28;20311;-37
2021/06/15 12:57:11;;;;;;;6.47;3.78;;;34.90;41.70;;;;;;5017087;28;20333;-36
2021/06/15 12:59:41;;;;;;;10.25;3.17;;;35.00;42.30;;;;;;5017066;28;20310;-36
2021/06/15 13:02:18;;;;;;;5.13;3.10;;;35.00;42.90;;;;;;5016992;28;20038;-36
2021/06/15 13:04:53;;;;;;;4.15;2.72;;;34.90;43.30;;;;;;5016708;28;20091;-37